Time;durP1;ratioP1;P1;durP2;ratioP2;P2;SDS_P1;SDS_P2;PMS_P1;PMS_P2;Temp;Humidity;BMP_temperature;BMP_pressure;BME280_temperature;BME280_humidity;BME280_pressure;Samples;Min_cycle;Max_cycle;Signal;HPM_P1;HPM_P2
2021/04/01 17:32:38;;;;;;;8.68;2.58;;;;;;;3.22;73.19;100690.69;2581571;55;20125;-74
2021/04/01 17:35:08;;;;;;;9.40;2.87;;;;;;;3.20;74.30;100691.59;2581374;55;20125;-72
2021/04/01 17:37:38;;;;;;;4.53;2.22;;;;;;;3.11;74.69;100694.66;2576167;55;20634;-73
2021/04/01 17:40:09;;;;;;;9.45;1.83;;;;;;;3.03;75.05;100684.44;2576920;55;20598;-74
2021/04/01 17:42:37;;;;;;;8.93;2.83;;;;;;;3.06;75.03;100688.72;2581418;55;20515;-73
2021/04/01 17:45:06;;;;;;;10.35;3.53;;;;;;;3.05;75.18;100694.94;2576216;55;20150;-73
2021/04/01 17:47:35;;;;;;;13.35;5.40;;;;;;;3.00;75.81;100687.22;2576306;55;20129;-73
2021/04/01 17:50:05;;;;;;;14.32;7.32;;;;;;;3.06;75.87;100694.87;2581195;55;20128;-74
2021/04/01 17:52:35;;;;;;;19.33;9.27;;;;;;;3.04;75.14;100686.16;2581395;55;20132;-74
2021/04/01 17:55:06;;;;;;;18.60;11.80;;;;;;;3.05;75.59;100687.00;2576227;55;20121;-73
2021/04/01 17:57:41;;;;;;;18.00;11.48;;;;;;;3.02;75.36;100695.06;2581182;55;20217;-73
2021/04/01 18:00:13;;;;;;;24.00;12.93;;;;;;;3.00;76.01;100688.97;2581213;55;20105;-73
2021/04/01 18:02:44;;;;;;;26.90;14.00;;;;;;;2.99;76.53;100695.19;2576316;55;20166;-73
2021/04/01 18:05:29;;;;;;;21.27;12.45;;;;;;;2.96;77.12;100690.06;2581477;55;20123;-73
2021/04/01 18:24:49;;;;;;;25.00;15.40;;;;;;;2.61;79.52;100686.25;2563821;55;20141;-73
2021/04/01 18:27:33;;;;;;;22.15;14.75;;;;;;;2.59;79.07;100700.41;2572317;55;20135;-73
2021/04/01 18:30:06;;;;;;;26.17;14.15;;;;;;;2.57;79.61;100702.25;2581308;55;20626;-73
2021/04/01 18:32:37;;;;;;;22.25;13.65;;;;;;;2.51;80.20;100700.72;2581196;55;20513;-73
2021/04/01 18:35:19;;;;;;;23.08;13.65;;;;;;;2.40;80.75;100679.22;2581243;55;20123;-74
2021/04/01 18:37:51;;;;;;;24.83;13.50;;;;;;;2.46;80.74;100697.41;2581193;55;20139;-73
2021/04/01 18:40:28;;;;;;;18.50;11.15;;;;;;;2.44;80.38;100692.19;2581261;55;20138;-73
2021/04/01 18:42:59;;;;;;;28.58;11.65;;;;;;;2.47;81.45;100696.50;2581112;55;20113;-73
2021/04/01 18:45:34;;;;;;;17.67;10.05;;;;;;;2.41;80.90;100692.34;2581039;55;20633;-73
2021/04/01 18:48:07;;;;;;;24.95;11.43;;;;;;;2.41;81.66;100692.34;2575913;55;20109;-73
2021/04/01 18:50:38;;;;;;;16.02;7.93;;;;;;;2.33;81.45;100692.66;2575952;55;20137;-73
2021/04/01 18:53:15;;;;;;;15.57;7.30;;;;;;;2.39;81.81;100698.56;2576055;55;20182;-73
2021/04/01 18:56:03;;;;;;;11.73;5.70;;;;;;;2.33;81.71;100689.16;2581123;55;20496;-73
2021/04/01 18:58:38;;;;;;;13.57;5.90;;;;;;;2.28;82.34;100691.97;2581051;55;20162;-73
2021/04/01 19:01:17;;;;;;;10.45;5.80;;;;;;;2.22;82.47;100692.25;2581168;55;20133;-76
2021/04/01 19:03:47;;;;;;;10.70;5.18;;;;;;;2.19;83.24;100698.47;2581056;55;20105;-77
2021/04/01 19:06:20;;;;;;;9.98;4.72;;;;;;;2.13;82.90;100688.19;2576271;55;20500;-75
2021/04/01 19:08:51;;;;;;;;;;;;;;;2.41;81.17;100691.50;2576630;55;20132;-75
2021/04/01 19:22:54;;;;;;;5.05;3.25;;;;;;;2.10;83.45;100690.97;2572955;55;20121;-75
2021/04/01 19:25:24;;;;;;;12.05;4.57;;;;;;;2.03;84.15;100685.09;2580038;55;20129;-75
2021/04/01 19:27:53;;;;;;;11.25;4.03;;;;;;;2.07;84.20;100689.28;2580028;55;20138;-75
2021/04/01 19:30:21;;;;;;;11.20;4.30;;;;;;;1.97;84.43;100679.22;2572483;55;20143;-75
2021/04/01 19:32:53;;;;;;;8.02;4.10;;;;;;;1.93;84.60;100686.38;2579933;55;20120;-74
2021/04/01 19:35:21;;;;;;;8.18;4.87;;;;;;;1.92;84.34;100687.28;2579284;55;20515;-74
2021/04/01 19:37:50;;;;;;;6.85;4.28;;;;;;;1.93;84.81;100686.38;2577546;55;20699;-75
2021/04/01 19:40:21;;;;;;;8.38;4.40;;;;;;;1.88;85.61;100699.72;2575394;55;20128;-75
2021/04/01 19:42:55;;;;;;;10.05;4.32;;;;;;;1.77;85.81;100673.81;2579961;55;20162;-74
2021/04/01 19:45:26;;;;;;;19.35;4.20;;;;;;;1.86;85.58;100685.75;2574473;55;20127;-75
2021/04/01 19:47:54;;;;;;;10.65;5.50;;;;;;;1.85;85.78;100688.44;2579485;55;21066;-75
2021/04/01 19:50:22;;;;;;;10.35;4.20;;;;;;;1.84;85.62;100686.72;2580187;55;20471;-75
2021/04/01 19:52:51;;;;;;;11.18;4.37;;;;;;;1.83;85.26;100685.84;2574522;55;20119;-74
2021/04/01 19:55:24;;;;;;;9.38;6.30;;;;;;;1.78;85.97;100691.31;2580141;55;20126;-75
2021/04/01 19:57:55;;;;;;;10.65;5.00;;;;;;;1.74;86.25;100680.94;2579952;55;20121;-75
2021/04/01 20:00:27;;;;;;;9.48;4.57;;;;;;;1.73;85.88;100685.38;2574880;55;20535;-75
2021/04/01 20:02:56;;;;;;;12.77;4.32;;;;;;;1.71;86.49;100681.94;2574998;55;20619;-75
2021/04/01 20:05:25;;;;;;;11.65;3.92;;;;;;;1.68;86.47;100671.53;2579852;55;20569;-75
2021/04/01 20:07:53;;;;;;;6.85;3.97;;;;;;;1.64;86.24;100691.00;2579491;55;20623;-75
2021/04/01 20:10:24;;;;;;;23.00;4.47;;;;;;;1.64;86.99;100686.56;2574953;55;20109;-75
2021/04/01 20:12:53;;;;;;;9.65;3.97;;;;;;;1.64;87.14;100683.09;2579714;55;20139;-75
2021/04/01 20:15:25;;;;;;;14.52;6.68;;;;;;;1.63;87.18;100674.34;2579895;55;20116;-75
2021/04/01 20:17:54;;;;;;;13.65;6.22;;;;;;;1.64;87.09;100677.84;2573864;55;20109;-75
2021/04/01 20:20:22;;;;;;;13.48;6.53;;;;;;;1.63;87.00;100674.34;2579337;55;20128;-74
2021/04/01 20:22:50;;;;;;;9.32;4.15;;;;;;;1.62;86.44;100671.78;2572920;55;20129;-74
2021/04/01 20:25:20;;;;;;;9.07;4.15;;;;;;;1.58;87.05;100667.53;2573134;55;20659;-75
2021/04/01 20:27:49;;;;;;;9.13;3.90;;;;;;;1.60;86.80;100676.22;2572935;55;20152;-74
2021/04/01 20:30:19;;;;;;;10.63;3.72;;;;;;;1.58;87.41;100683.31;2573271;55;20128;-75
2021/04/01 20:32:51;;;;;;;8.32;3.85;;;;;;;1.55;87.43;100676.41;2575494;55;20543;-74
2021/04/01 20:35:22;;;;;;;7.25;4.10;;;;;;;1.47;87.66;100678.47;2575189;55;20131;-73
2021/04/01 20:37:52;;;;;;;8.13;3.58;;;;;;;1.46;88.25;100676.78;2581197;55;20160;-73
2021/04/01 20:40:25;;;;;;;11.98;4.07;;;;;;;1.43;88.04;100671.59;2576711;55;20105;-74
2021/04/01 20:42:53;;;;;;;7.25;4.00;;;;;;;1.37;88.45;100672.69;2582060;55;20159;-73
2021/04/01 20:45:25;;;;;;;9.05;4.05;;;;;;;1.34;89.09;100670.19;2581995;55;20127;-73
2021/04/01 20:47:55;;;;;;;13.57;3.75;;;;;;;1.32;89.27;100666.78;2576778;55;20159;-73
2021/04/01 20:50:28;;;;;;;7.28;3.50;;;;;;;1.27;88.89;100664.31;2576886;55;20117;-73
2021/04/01 20:52:58;;;;;;;5.93;3.30;;;;;;;1.16;89.12;100654.19;2576753;55;20638;-73
2021/04/01 20:55:32;;;;;;;11.02;3.90;;;;;;;1.13;90.30;100670.06;2576836;55;20113;-73
2021/04/01 20:58:01;;;;;;;6.85;3.92;;;;;;;1.01;90.91;100660.84;2582052;55;20135;-73
2021/04/01 21:00:34;;;;;;;7.65;4.03;;;;;;;0.95;91.49;100661.94;2575108;55;20105;-73
2021/04/01 21:03:08;;;;;;;8.10;4.18;;;;;;;0.87;92.46;100660.50;2576771;55;20124;-74
2021/04/01 21:05:40;;;;;;;8.63;4.20;;;;;;;0.83;92.52;100655.34;2577193;55;20166;-73
2021/04/01 21:08:13;;;;;;;9.05;3.55;;;;;;;0.80;92.46;100663.34;2576829;55;20162;-73
2021/04/01 21:10:41;;;;;;;8.35;3.50;;;;;;;0.81;91.77;100656.34;2577706;55;20508;-73
2021/04/01 21:13:14;;;;;;;7.47;4.32;;;;;;;0.82;92.37;100655.41;2582657;55;20121;-73
2021/04/01 21:15:45;;;;;;;10.32;4.00;;;;;;;0.81;92.12;100658.97;2582726;55;20108;-73
2021/04/01 21:18:19;;;;;;;9.65;4.22;;;;;;;0.82;92.18;100645.75;2576581;55;20125;-74
2021/04/01 21:20:49;;;;;;;7.50;3.85;;;;;;;0.81;91.93;100645.81;2582576;55;20941;-73
2021/04/01 21:23:20;;;;;;;11.55;4.68;;;;;;;0.81;91.84;100644.03;2577205;55;20124;-74
2021/04/01 21:25:55;;;;;;;9.05;4.07;;;;;;;0.86;91.95;100646.50;2576692;55;20522;-73
2021/04/01 21:28:28;;;;;;;11.15;4.70;;;;;;;0.82;92.57;100650.16;2582456;55;20117;-74
2021/04/01 21:31:02;;;;;;;8.40;3.75;;;;;;;0.80;92.86;100641.44;2577622;55;20113;-73
2021/04/01 21:33:38;;;;;;;9.40;3.62;;;;;;;0.73;93.01;100646.06;2576321;55;20120;-73
2021/04/01 21:36:09;;;;;;;10.93;4.47;;;;;;;0.72;93.35;100646.16;2578007;55;20109;-73
2021/04/01 21:38:40;;;;;;;8.43;3.70;;;;;;;0.72;92.82;100654.03;2582264;55;20125;-73
2021/04/01 21:41:11;;;;;;;12.07;3.55;;;;;;;0.75;93.05;100653.91;2581932;55;20113;-73
2021/04/01 21:43:40;;;;;;;;;;;;;;;0.96;91.17;100647.03;2575880;55;20143;-74
2021/04/01 21:46:08;;;;;;;11.10;4.00;;;;;;;0.86;91.76;100651.75;2577389;55;20011;-73
2021/04/01 21:48:40;;;;;;;8.40;4.28;;;;;;;0.90;92.01;100647.25;2582386;55;20138;-73
2021/04/01 21:51:11;;;;;;;12.52;3.72;;;;;;;0.92;91.22;100640.16;2582145;55;20660;-73
2021/04/01 21:53:40;;;;;;;9.50;4.10;;;;;;;0.93;91.49;100632.25;2577257;55;20123;-73
2021/04/01 21:56:08;;;;;;;7.30;4.25;;;;;;;1.01;90.66;100644.25;2582023;55;20641;-73
2021/04/01 21:58:36;;;;;;;10.23;4.70;;;;;;;1.04;91.06;100639.72;2576590;55;20113;-73
2021/04/01 22:01:04;;;;;;;21.77;12.75;;;;;;;1.06;90.78;100637.03;2581656;55;20149;-73
2021/04/01 22:03:34;;;;;;;15.98;7.45;;;;;;;1.02;90.66;100638.06;2582393;55;20135;-73
2021/04/01 22:06:03;;;;;;;12.43;5.20;;;;;;;0.96;90.11;100621.59;2581968;55;20730;-73
2021/04/01 22:08:31;;;;;;;12.85;4.93;;;;;;;0.96;90.67;100621.59;2575427;55;20183;-73
2021/04/01 22:11:00;;;;;;;7.93;3.87;;;;;;;0.98;90.56;100632.06;2577897;55;20512;-73
2021/04/01 22:13:30;;;;;;;11.65;4.32;;;;;;;0.93;91.09;100624.34;2582141;55;20558;-73
2021/04/01 22:15:59;;;;;;;7.70;3.72;;;;;;;0.90;91.31;100629.72;2582681;55;20163;-73
2021/04/01 22:18:28;;;;;;;10.60;3.92;;;;;;;0.85;91.11;100623.78;2576660;55;20132;-73
2021/04/01 22:20:58;;;;;;;8.70;3.65;;;;;;;0.81;91.42;100628.28;2580634;55;20121;-73
2021/04/01 22:23:29;;;;;;;7.90;3.70;;;;;;;0.72;92.26;100614.62;2582649;55;20108;-73
2021/04/01 22:25:58;;;;;;;11.95;5.50;;;;;;;0.68;92.40;100632.25;2582738;55;20646;-73
2021/04/01 22:28:26;;;;;;;15.10;5.10;;;;;;;0.62;93.32;100627.22;2582201;55;20120;-73
2021/04/01 22:30:56;;;;;;;8.77;5.10;;;;;;;0.58;93.30;100630.88;2583109;55;20651;-73
2021/04/01 22:33:32;;;;;;;15.13;5.00;;;;;;;0.50;94.12;100617.97;2577877;55;20922;-74
2021/04/01 22:36:03;;;;;;;12.40;4.82;;;;;;;0.40;93.67;100618.31;2577551;55;20140;-74
2021/04/01 22:38:38;;;;;;;10.15;4.53;;;;;;;0.40;94.10;100612.22;2582769;55;20119;-73
2021/04/01 22:41:10;;;;;;;12.30;5.70;;;;;;;0.37;94.01;100607.91;2582798;55;20125;-73
2021/04/01 22:43:41;;;;;;;13.10;6.20;;;;;;;0.36;94.46;100613.25;2582435;55;20136;-73
2021/04/01 22:46:11;;;;;;;11.50;5.18;;;;;;;0.33;94.90;100622.06;2577751;55;20139;-73
2021/04/01 22:48:46;;;;;;;7.93;4.90;;;;;;;0.18;95.36;100596.31;2582882;55;20145;-73
2021/04/01 22:51:18;;;;;;;7.40;3.90;;;;;;;0.19;96.25;100619.03;2582845;55;20135;-73
2021/04/01 22:53:50;;;;;;;10.50;4.62;;;;;;;0.13;96.32;100617.47;2577698;55;20125;-74
2021/04/01 22:56:22;;;;;;;11.73;4.70;;;;;;;0.06;96.45;100611.56;2577791;55;20480;-73
2021/04/01 22:58:54;;;;;;;8.98;5.28;;;;;;;0.04;97.18;100610.78;2577350;55;20125;-73
2021/04/01 23:01:24;;;;;;;8.98;4.75;;;;;;;-0.01;97.48;100607.44;2577701;55;20511;-74
2021/04/01 23:03:52;;;;;;;13.45;4.60;;;;;;;0.00;96.68;100611.78;2577186;55;20117;-73
2021/04/01 23:06:20;;;;;;;9.82;4.00;;;;;;;-0.03;97.56;100614.50;2577245;55;20125;-73
2021/04/01 23:08:49;;;;;;;8.77;4.50;;;;;;;-0.01;97.72;100615.28;2577919;55;20146;-73
2021/04/01 23:11:17;;;;;;;10.32;4.47;;;;;;;-0.10;97.91;100597.22;2577906;55;20629;-73
2021/04/01 23:13:48;;;;;;;9.90;4.30;;;;;;;-0.16;98.55;100598.28;2576184;55;20132;-73
2021/04/01 23:16:16;;;;;;;9.95;4.00;;;;;;;-0.13;98.22;100602.59;2576912;55;21014;-73
2021/04/01 23:18:44;;;;;;;15.57;5.07;;;;;;;-0.22;99.02;100599.34;2576734;55;20121;-72
2021/04/01 23:21:12;;;;;;;11.48;5.30;;;;;;;-0.28;99.37;100602.19;2576736;55;20109;-74
2021/04/01 23:23:42;;;;;;;9.90;4.72;;;;;;;-0.31;99.32;100597.03;2577620;55;20121;-74
2021/04/01 23:26:12;;;;;;;7.37;4.43;;;;;;;-0.31;98.91;100594.41;2576861;55;20626;-73
2021/04/01 23:28:39;;;;;;;9.02;4.45;;;;;;;-0.32;98.41;100593.56;2576590;55;20479;-74
2021/04/01 23:31:07;;;;;;;9.82;4.47;;;;;;;-0.32;99.15;100597.94;2576866;55;20131;-73
2021/04/01 23:33:37;;;;;;;11.77;4.57;;;;;;;-0.33;99.83;100590.97;2576731;55;20125;-73
2021/04/01 23:36:07;;;;;;;14.73;5.55;;;;;;;-0.34;99.35;100598.00;2577713;55;20117;-73
2021/04/01 23:38:36;;;;;;;;;;;;;;;-0.11;99.01;100598.16;2578295;55;20670;-73
2021/04/01 23:41:06;;;;;;;13.18;6.93;;;;;;;-0.34;99.00;100591.88;2576814;55;20019;-74
2021/04/01 23:43:36;;;;;;;14.32;6.72;;;;;;;-0.38;99.23;100590.28;2577093;55;20635;-74
2021/04/01 23:46:06;;;;;;;14.70;7.25;;;;;;;-0.48;99.19;100585.31;2576623;55;20143;-73
2021/04/01 23:48:34;;;;;;;17.67;9.73;;;;;;;-0.51;99.71;100590.63;2576602;55;20129;-72
2021/04/01 23:51:01;;;;;;;21.27;11.43;;;;;;;-0.59;99.86;100582.19;2576920;55;20538;-73
2021/04/01 23:53:29;;;;;;;16.77;9.98;;;;;;;-0.60;99.94;100590.91;2576438;55;20500;-72
2021/04/01 23:55:59;;;;;;;13.13;7.28;;;;;;;-0.65;100.00;100583.22;2577285;55;20112;-73
2021/04/01 23:58:31;;;;;;;;;;;;;;;-0.39;99.65;100599.06;2577740;55;20117;-73
